Time;durP1;ratioP1;P1;durP2;ratioP2;P2;SDS_P1;SDS_P2;PMS_P1;PMS_P2;Temp;Humidity;BMP_temperature;BMP_pressure;BME280_temperature;BME280_humidity;BME280_pressure;Samples;Min_cycle;Max_cycle;Signal;HPM_P1;HPM_P2
2022/12/04 00:01:55;;;;;;;73.70;26.17;;;1.20;99.90;0.90;100892.00;;;;4989062;28;93948;-63
2022/12/04 00:04:21;;;;;;;40.60;20.67;;;1.10;99.90;0.90;100884.00;;;;4989404;28;116922;-64
2022/12/04 00:06:46;;;;;;;39.57;23.30;;;1.10;99.90;0.90;100892.00;;;;4993158;27;89321;-65
2022/12/04 00:09:12;;;;;;;46.03;21.83;;;1.20;99.90;0.90;100893.00;;;;4987993;28;112663;-65
2022/12/04 00:11:38;;;;;;;45.10;25.33;;;1.20;99.90;0.90;100884.00;;;;4987582;27;87106;-65
2022/12/04 00:14:04;;;;;;;34.50;19.77;;;1.20;99.90;0.90;100896.00;;;;4989523;28;108969;-64
2022/12/04 00:16:30;;;;;;;39.70;21.33;;;1.20;99.90;0.90;100896.00;;;;4982955;28;110515;-64
2022/12/04 00:18:56;;;;;;;43.63;23.20;;;1.20;99.90;0.90;100885.00;;;;4983186;27;88779;-65
2022/12/04 00:21:24;;;;;;;41.70;23.63;;;1.20;99.90;0.90;100888.00;;;;4987845;27;87771;-64
2022/12/04 00:23:50;;;;;;;47.07;23.53;;;1.30;99.90;1.00;100889.00;;;;4985340;28;94945;-65
2022/12/04 00:26:19;;;;;;;54.33;25.27;;;1.90;99.90;0.90;100883.00;;;;4988748;28;88238;-65
2022/12/04 00:28:46;;;;;;;49.80;23.43;;;1.60;99.90;0.90;100887.00;;;;4985940;28;87720;-66
2022/12/04 00:31:22;;;;;;;40.67;22.60;;;1.20;99.90;0.90;100889.00;;;;4987263;28;90880;-64
2022/12/04 00:33:48;;;;;;;47.03;22.73;;;2.30;99.90;0.90;100887.00;;;;4987969;28;88721;-65
2022/12/04 00:36:17;;;;;;;38.37;24.03;;;1.60;99.90;1.00;100889.00;;;;4991902;27;87928;-64
2022/12/04 00:38:43;;;;;;;47.33;25.53;;;1.30;99.90;1.00;100887.00;;;;4981237;28;87859;-64
2022/12/04 00:41:15;;;;;;;51.93;23.97;;;1.20;99.90;1.00;100889.00;;;;4985439;28;87804;-65
2022/12/04 00:43:41;;;;;;;50.53;24.47;;;1.30;99.90;1.00;100876.00;;;;4982701;27;91942;-65
2022/12/04 00:46:08;;;;;;;44.17;22.10;;;1.30;99.90;1.00;100885.00;;;;4988433;27;89082;-65
2022/12/04 00:48:33;;;;;;;41.50;24.13;;;2.30;99.90;1.00;100886.00;;;;4982933;27;87773;-65
2022/12/04 00:51:10;;;;;;;42.93;21.83;;;1.30;99.90;1.00;100878.00;;;;4986822;28;87738;-66
2022/12/04 00:53:37;;;;;;;50.10;25.50;;;1.80;99.90;1.00;100877.00;;;;4985301;28;106074;-65
2022/12/04 00:56:06;;;;;;;40.67;23.90;;;1.30;99.90;1.00;100878.00;;;;4987193;28;88146;-66
2022/12/04 00:58:32;;;;;;;48.90;26.77;;;1.30;99.90;1.00;100877.00;;;;4987333;27;89303;-65
2022/12/04 01:01:04;;;;;;;37.60;23.70;;;1.30;99.90;1.00;100875.00;;;;4990971;27;88811;-65
2022/12/04 01:03:30;;;;;;;42.57;22.80;;;1.30;99.90;1.00;100878.00;;;;4981924;28;89453;-65
2022/12/04 01:05:56;;;;;;;44.17;25.67;;;1.30;99.90;1.00;100871.00;;;;4988883;28;88323;-65
2022/12/04 01:08:21;;;;;;;37.90;24.77;;;1.30;99.90;1.10;100875.00;;;;4991029;28;103044;-64
2022/12/04 01:10:47;;;;;;;50.93;26.47;;;1.30;99.90;1.00;100868.00;;;;4980316;27;108599;-65
2022/12/04 01:13:13;;;;;;;45.83;25.10;;;1.40;99.90;1.10;100873.00;;;;4986741;27;104040;-64
2022/12/04 01:15:41;;;;;;;50.60;22.67;;;1.30;99.90;1.10;100868.00;;;;4988717;28;117341;-65
2022/12/04 01:18:07;;;;;;;43.63;24.23;;;2.20;99.90;1.10;100876.00;;;;4981416;28;87944;-64
2022/12/04 01:20:32;;;;;;;41.53;24.37;;;1.40;99.90;1.10;100862.00;;;;4987138;28;107734;-66
2022/12/04 01:22:58;;;;;;;40.63;24.43;;;1.40;99.90;1.10;100870.00;;;;4984557;28;111776;-66
2022/12/04 01:25:24;;;;;;;40.17;21.77;;;1.30;99.90;1.10;100862.00;;;;4984477;28;117509;-67
2022/12/04 01:27:49;;;;;;;48.53;27.90;;;1.50;99.90;1.10;100874.00;;;;4987447;27;113066;-64
2022/12/04 01:30:15;;;;;;;48.67;25.17;;;1.40;99.90;1.10;100871.00;;;;4989139;28;107351;-65
2022/12/04 01:32:41;;;;;;;51.17;26.37;;;0.90;99.90;1.10;100872.00;;;;4984705;28;102505;-66
2022/12/04 01:35:07;;;;;;;58.23;27.40;;;1.40;99.90;1.10;100871.00;;;;4986652;28;116459;-66
2022/12/04 01:37:33;;;;;;;40.07;24.37;;;1.40;99.90;1.10;100872.00;;;;4989952;27;97668;-66
2022/12/04 01:39:59;;;;;;;57.50;26.20;;;1.30;99.90;1.10;100862.00;;;;4983387;27;107557;-66
2022/12/04 01:42:25;;;;;;;48.23;24.77;;;1.50;99.90;1.10;100855.00;;;;4986471;28;89218;-65
2022/12/04 01:45:37;;;;;;;43.83;22.67;;;1.40;99.90;1.10;100854.00;;;;4971433;28;117568;-65
2022/12/04 01:48:18;;;;;;;41.00;26.07;;;1.40;99.90;1.10;100850.00;;;;4988035;27;90897;-67
2022/12/04 01:50:46;;;;;;;39.80;25.47;;;1.50;99.90;1.10;100838.00;;;;4977332;28;87342;-65
2022/12/04 01:53:12;;;;;;;51.63;28.03;;;1.40;99.90;1.10;100846.00;;;;4971753;27;103235;-66
2022/12/04 01:55:38;;;;;;;48.40;26.03;;;1.30;99.90;1.10;100843.00;;;;4985427;28;118404;-65
2022/12/04 01:58:06;;;;;;;51.63;25.27;;;1.50;99.90;1.10;100825.00;;;;4959057;28;88738;-66
2022/12/04 02:00:32;;;;;;;39.33;23.53;;;1.50;99.90;1.10;100845.00;;;;4974223;28;87713;-67
2022/12/04 02:02:57;;;;;;;49.77;25.03;;;1.40;99.90;1.20;100832.00;;;;4983156;27;111364;-66
2022/12/04 02:05:24;;;;;;;50.90;25.77;;;1.50;99.90;1.10;100835.00;;;;4967795;28;118700;-66
2022/12/04 02:07:56;;;;;;;58.10;25.70;;;1.40;99.90;1.20;100834.00;;;;4986931;28;88262;-66
2022/12/04 02:10:47;;;;;;;45.63;24.83;;;0.70;99.90;1.20;100834.00;;;;4983653;28;88180;-66
2022/12/04 02:13:27;;;;;;;39.97;25.10;;;2.00;99.90;1.10;100830.00;;;;4975900;27;99377;-67
2022/12/04 02:16:09;;;;;;;48.10;26.97;;;1.60;99.90;1.20;100818.00;;;;4976260;28;87761;-67
2022/12/04 02:18:58;;;;;;;46.07;24.43;;;2.70;99.90;1.20;100809.00;;;;4975026;28;87825;-66
2022/12/04 02:21:38;;;;;;;41.73;28.10;;;1.50;99.90;1.20;100813.00;;;;4977496;28;101559;-67
2022/12/04 02:24:41;;;;;;;49.00;27.17;;;1.50;99.90;1.20;100815.00;;;;4960471;28;89148;-66
2022/12/04 02:28:07;;;;;;;44.60;27.23;;;1.90;99.90;1.20;100807.00;;;;4976757;27;88995;-67
2022/12/04 02:30:36;;;;;;;48.97;27.57;;;1.60;99.90;1.20;100805.00;;;;4992638;27;87877;-66
2022/12/04 02:33:33;;;;;;;58.97;28.67;;;1.50;99.90;1.20;100815.00;;;;4978584;28;87664;-69
2022/12/04 02:36:12;;;;;;;56.27;28.90;;;1.50;99.90;1.20;100796.00;;;;4976694;28;105910;-68
2022/12/04 02:38:49;;;;;;;58.07;28.80;;;1.50;99.90;1.20;100808.00;;;;4960401;27;103008;-68
2022/12/04 02:41:37;;;;;;;50.10;28.93;;;1.50;99.90;1.20;100816.00;;;;4978529;28;88077;-67
2022/12/04 02:44:14;;;;;;;50.03;26.23;;;1.40;99.90;1.20;100810.00;;;;4977252;28;86890;-67
2022/12/04 02:46:44;;;;;;;52.30;26.50;;;1.50;99.90;1.20;100809.00;;;;4989247;27;89585;-67
2022/12/04 02:49:24;;;;;;;54.40;29.33;;;1.50;99.90;1.20;100809.00;;;;4990267;27;87908;-66
2022/12/04 02:51:52;;;;;;;67.03;28.43;;;1.40;99.90;1.20;100803.00;;;;4979404;28;89576;-66
2022/12/04 02:54:41;;;;;;;56.73;31.07;;;1.60;99.90;1.20;100811.00;;;;4989475;27;90818;-67
2022/12/04 02:57:15;;;;;;;50.90;27.80;;;1.50;99.90;1.20;100804.00;;;;4974135;28;93266;-66
2022/12/04 02:59:43;;;;;;;59.33;25.77;;;1.50;99.90;1.20;100808.00;;;;4979904;28;93645;-66
2022/12/04 03:02:25;;;;;;;58.33;30.70;;;1.40;99.90;1.10;100812.00;;;;4977892;28;88172;-65
2022/12/04 03:04:54;;;;;;;53.90;27.60;;;1.40;99.90;1.10;100806.00;;;;4977734;28;87748;-66
2022/12/04 03:07:29;;;;;;;55.93;28.77;;;1.50;99.90;1.20;100796.00;;;;4979788;28;88087;-67
2022/12/04 03:09:59;;;;;;;56.77;29.47;;;1.40;99.90;1.20;100795.00;;;;4978602;28;87375;-67
2022/12/04 03:12:46;;;;;;;50.50;29.13;;;1.40;99.90;1.20;100795.00;;;;4990424;27;100553;-66
2022/12/04 03:15:21;;;;;;;51.87;28.87;;;1.50;99.90;1.20;100796.00;;;;4991020;28;99691;-66
2022/12/04 03:17:56;;;;;;;53.93;26.80;;;1.50;99.90;1.20;100793.00;;;;4989276;28;89820;-66
2022/12/04 03:20:23;;;;;;;73.33;30.70;;;1.50;99.90;1.20;100803.00;;;;4989584;27;103710;-67
2022/12/04 03:22:56;;;;;;;59.87;31.30;;;1.40;99.90;1.20;100790.00;;;;4973253;28;87955;-66
2022/12/04 03:25:32;;;;;;;51.17;27.93;;;1.50;99.90;1.20;100775.00;;;;4989462;27;87635;-66
2022/12/04 03:28:04;;;;;;;55.17;28.40;;;1.50;99.90;1.20;100792.00;;;;4978359;28;87756;-67
2022/12/04 03:30:39;;;;;;;66.17;30.20;;;1.40;99.90;1.20;100779.00;;;;4973932;28;99600;-66
2022/12/04 03:33:13;;;;;;;47.97;29.10;;;1.60;99.90;1.20;100785.00;;;;4975718;28;87982;-66
2022/12/04 03:35:52;;;;;;;60.43;30.33;;;1.50;99.90;1.20;100788.00;;;;4977523;28;87105;-67
2022/12/04 03:38:43;;;;;;;61.30;28.77;;;1.50;99.90;1.20;100794.00;;;;4991811;27;88181;-66
2022/12/04 03:41:30;;;;;;;53.07;27.17;;;1.50;99.90;1.20;100791.00;;;;4994379;27;88119;-65
2022/12/04 03:44:11;;;;;;;56.13;29.80;;;2.30;99.90;1.20;100789.00;;;;4967920;28;104899;-67
2022/12/04 03:46:57;;;;;;;52.63;28.20;;;1.50;99.90;1.20;100796.00;;;;4985935;27;90545;-68
2022/12/04 03:49:40;;;;;;;56.10;30.07;;;1.50;99.90;1.20;100789.00;;;;4978429;28;88076;-66
2022/12/04 03:52:26;;;;;;;51.23;32.17;;;1.50;99.90;1.20;100789.00;;;;4979675;27;87816;-66
2022/12/04 03:55:10;;;;;;;60.37;30.80;;;1.50;99.90;1.20;100795.00;;;;4977530;28;98655;-66
2022/12/04 03:57:41;;;;;;;48.97;25.93;;;1.50;99.90;1.20;100806.00;;;;4976566;28;87655;-67
2022/12/04 04:00:14;;;;;;;58.70;31.63;;;1.50;99.90;1.20;100803.00;;;;4979991;28;88939;-67
2022/12/04 04:03:04;;;;;;;51.03;29.57;;;1.50;99.90;1.20;100803.00;;;;4974930;28;87251;-67
2022/12/04 04:05:32;;;;;;;58.80;28.20;;;2.40;99.90;1.20;100813.00;;;;4975191;28;89175;-66
2022/12/04 04:10:48;;;;;;;61.03;29.67;;;1.50;99.90;1.20;100808.00;;;;4957731;28;88820;-65
2022/12/04 04:25:03;;;;;;;49.67;30.03;;;1.70;99.90;1.20;100804.00;;;;4967411;28;87763;-65
2022/12/04 04:27:29;;;;;;;53.17;29.93;;;1.60;99.90;1.30;100807.00;;;;4958293;28;87820;-66
2022/12/04 04:29:54;;;;;;;55.60;32.07;;;1.50;99.90;1.30;100804.00;;;;4968685;28;110076;-66
2022/12/04 04:32:41;;;;;;;57.17;31.30;;;1.60;99.90;1.30;100799.00;;;;4964186;28;117207;-66
2022/12/04 04:35:32;;;;;;;56.13;30.13;;;2.30;99.90;1.30;100808.00;;;;4966910;28;105231;-65
2022/12/04 04:38:17;;;;;;;55.23;30.20;;;1.60;99.90;1.30;100805.00;;;;4958736;28;102470;-67
2022/12/04 04:41:09;;;;;;;65.20;31.73;;;1.60;99.90;1.30;100804.00;;;;4992463;27;87750;-67
2022/12/04 04:43:50;;;;;;;52.27;30.33;;;1.60;99.90;1.30;100813.00;;;;4989876;28;88030;-67
2022/12/04 04:46:34;;;;;;;47.70;28.40;;;1.60;99.90;1.30;100815.00;;;;4988987;27;90273;-67
2022/12/04 04:49:05;;;;;;;57.97;32.37;;;1.60;99.90;1.30;100809.00;;;;4977248;28;87785;-67
2022/12/04 04:51:33;;;;;;;64.03;30.90;;;2.50;99.90;1.30;100813.00;;;;4978271;28;87797;-68
2022/12/04 04:54:03;;;;;;;60.60;32.77;;;1.60;99.90;1.30;100808.00;;;;4986513;28;117991;-66
2022/12/04 04:56:30;;;;;;;64.37;31.67;;;2.40;99.90;1.40;100801.00;;;;4977218;28;88777;-67
2022/12/04 04:58:55;;;;;;;69.10;30.57;;;1.60;99.90;1.40;100797.00;;;;4970017;28;113308;-66
2022/12/04 05:01:27;;;;;;;63.13;30.40;;;1.70;99.90;1.40;100802.00;;;;4988021;28;109553;-67
2022/12/04 05:03:53;;;;;;;59.00;30.57;;;1.60;99.90;1.40;100801.00;;;;4978782;28;118850;-67
2022/12/04 05:06:18;;;;;;;49.47;28.37;;;2.40;99.90;1.40;100801.00;;;;4984483;28;119867;-67
2022/12/04 05:08:45;;;;;;;64.93;30.57;;;1.60;99.90;1.40;100798.00;;;;4986021;28;113085;-66
2022/12/04 05:11:13;;;;;;;51.83;31.17;;;1.60;99.90;1.40;100797.00;;;;4988454;28;88017;-66
2022/12/04 05:13:41;;;;;;;58.10;30.67;;;1.70;99.90;1.40;100805.00;;;;4988322;28;87949;-67
2022/12/04 05:16:11;;;;;;;60.13;29.07;;;1.70;99.90;1.40;100807.00;;;;4986829;27;88096;-68
2022/12/04 05:18:37;;;;;;;49.93;28.87;;;1.70;99.90;1.40;100797.00;;;;4988770;28;94234;-68
2022/12/04 05:21:08;;;;;;;57.37;30.10;;;1.60;99.90;1.40;100797.00;;;;4967980;28;86990;-65
2022/12/04 05:23:34;;;;;;;72.07;32.57;;;1.70;99.90;1.40;100791.00;;;;4989621;28;88445;-68
2022/12/04 05:26:02;;;;;;;51.87;29.73;;;1.80;99.90;1.40;100793.00;;;;4988602;28;104427;-68
2022/12/04 05:28:28;;;;;;;52.43;29.27;;;1.60;99.90;1.40;100801.00;;;;4990288;28;96492;-69
2022/12/04 05:30:56;;;;;;;62.30;30.60;;;1.80;99.90;1.40;100797.00;;;;4976549;28;87784;-67
2022/12/04 05:33:23;;;;;;;52.00;29.50;;;1.70;99.90;1.40;100793.00;;;;4970890;28;89353;-67
2022/12/04 05:36:06;;;;;;;48.23;29.50;;;1.80;99.90;1.40;100801.00;;;;4988425;27;87690;-68
2022/12/04 05:38:32;;;;;;;48.90;29.27;;;1.70;99.90;1.50;100795.00;;;;4982191;27;88195;-67
2022/12/04 05:41:00;;;;;;;58.37;29.30;;;1.70;99.90;1.50;100791.00;;;;4983531;28;90676;-67
2022/12/04 05:43:26;;;;;;;56.57;31.00;;;1.80;99.90;1.50;100785.00;;;;4987890;28;88890;-67
2022/12/04 05:45:52;;;;;;;50.40;29.30;;;1.90;99.90;1.40;100782.00;;;;4985772;28;87302;-68
2022/12/04 05:48:18;;;;;;;58.17;31.33;;;1.70;99.90;1.50;100792.00;;;;4987668;28;87694;-66
2022/12/04 05:50:44;;;;;;;57.97;31.67;;;1.80;99.90;1.40;100788.00;;;;4986770;28;87828;-67
2022/12/04 05:53:09;;;;;;;54.00;29.50;;;1.70;99.90;1.50;100790.00;;;;4987172;28;117858;-68
2022/12/04 05:55:35;;;;;;;55.03;27.43;;;1.60;99.90;1.50;100783.00;;;;4973094;28;103289;-67
2022/12/04 05:58:01;;;;;;;75.60;32.40;;;1.80;99.90;1.50;100781.00;;;;4994466;27;87767;-66
2022/12/04 06:00:27;;;;;;;50.97;30.50;;;1.70;99.90;1.50;100771.00;;;;4997858;27;87703;-68
2022/12/04 06:02:53;;;;;;;73.60;33.90;;;1.70;99.90;1.50;100776.00;;;;4993702;28;93830;-67
2022/12/04 06:05:19;;;;;;;58.70;29.37;;;1.80;99.90;1.50;100790.00;;;;4991454;27;117725;-68
2022/12/04 06:07:44;;;;;;;61.27;31.17;;;1.80;99.90;1.50;100780.00;;;;4994285;28;101965;-68
2022/12/04 06:10:10;;;;;;;60.53;31.77;;;1.60;99.90;1.50;100770.00;;;;4992753;28;108563;-68
2022/12/04 06:12:36;;;;;;;46.13;29.13;;;1.70;99.90;1.50;100777.00;;;;4993039;27;116822;-67
2022/12/04 06:15:02;;;;;;;57.53;31.20;;;2.80;99.90;1.50;100777.00;;;;4995604;28;117170;-68
2022/12/04 06:17:28;;;;;;;52.53;30.60;;;1.70;99.90;1.50;100766.00;;;;4995554;27;88736;-68
2022/12/04 06:19:54;;;;;;;51.73;32.30;;;1.80;99.90;1.50;100775.00;;;;4992672;27;100518;-67
2022/12/04 06:22:20;;;;;;;61.63;29.83;;;2.20;99.90;1.50;100769.00;;;;4996885;27;87831;-68
2022/12/04 06:24:46;;;;;;;57.20;31.77;;;1.80;99.90;1.50;100766.00;;;;4991262;27;88664;-67
2022/12/04 06:27:12;;;;;;;65.03;30.43;;;1.80;99.90;1.50;100750.00;;;;4993373;27;88319;-68
2022/12/04 06:29:38;;;;;;;56.40;33.53;;;1.80;99.90;1.60;100752.00;;;;4996265;28;108137;-68
2022/12/04 06:32:04;;;;;;;59.93;32.50;;;1.80;99.90;1.60;100754.00;;;;4994468;28;117148;-68
2022/12/04 06:34:30;;;;;;;58.47;32.17;;;1.70;99.90;1.60;100762.00;;;;4994128;28;118119;-67
2022/12/04 06:36:55;;;;;;;57.33;30.40;;;2.80;99.90;1.60;100753.00;;;;4994269;28;87672;-70
2022/12/04 06:39:21;;;;;;;56.60;30.90;;;1.80;99.90;1.60;100772.00;;;;4993847;28;108637;-69
2022/12/04 06:41:47;;;;;;;108.90;59.83;;;1.80;99.90;1.60;100771.00;;;;4989653;27;114223;-68
2022/12/04 06:44:14;;;;;;;86.37;48.97;;;1.90;99.90;1.60;100769.00;;;;4993308;27;88943;-68
2022/12/04 06:46:40;;;;;;;85.77;42.73;;;1.80;99.90;1.60;100767.00;;;;4995112;28;103006;-67
2022/12/04 06:49:05;;;;;;;63.10;37.43;;;1.60;99.90;1.60;100769.00;;;;4983552;27;88900;-68
2022/12/04 06:51:35;;;;;;;60.80;32.97;;;3.00;99.90;1.60;100773.00;;;;4988755;28;89025;-67
2022/12/04 06:54:02;;;;;;;46.97;32.80;;;1.90;99.90;1.60;100770.00;;;;4992711;27;88726;-68
2022/12/04 06:56:31;;;;;;;54.57;32.33;;;1.90;99.90;1.70;100777.00;;;;4992034;27;87769;-69
2022/12/04 06:58:59;;;;;;;58.30;35.13;;;1.90;99.90;1.70;100788.00;;;;4972945;28;86954;-67
2022/12/04 07:01:29;;;;;;;54.17;30.33;;;2.00;99.90;1.70;100795.00;;;;4989421;27;88573;-67
2022/12/04 07:03:56;;;;;;;65.00;46.57;;;1.80;99.90;1.70;100786.00;;;;4992817;27;88842;-68
2022/12/04 07:06:25;;;;;;;54.33;34.00;;;2.60;99.90;1.70;100797.00;;;;4986023;27;88747;-67
2022/12/04 07:09:05;;;;;;;56.10;28.07;;;1.90;99.90;1.70;100791.00;;;;4971706;27;87768;-69
2022/12/04 07:11:32;;;;;;;52.27;31.50;;;1.90;99.90;1.70;100797.00;;;;4989468;27;87903;-67
2022/12/04 07:13:58;;;;;;;62.67;34.87;;;2.00;99.90;1.70;100798.00;;;;4989936;27;88676;-67
2022/12/04 07:16:26;;;;;;;56.40;30.60;;;1.90;99.90;1.70;100801.00;;;;4992650;27;87936;-68
2022/12/04 07:18:52;;;;;;;56.43;29.73;;;2.00;99.90;1.60;100805.00;;;;4990486;27;87875;-66
2022/12/04 07:21:24;;;;;;;53.67;29.23;;;2.00;99.90;1.60;100790.00;;;;4986479;27;88119;-68
2022/12/04 07:23:52;;;;;;;69.70;37.40;;;1.90;99.90;1.60;100799.00;;;;4991441;27;87619;-68
2022/12/04 07:26:18;;;;;;;60.40;39.27;;;1.90;99.90;1.60;100790.00;;;;4990023;27;87766;-70
2022/12/04 07:28:44;;;;;;;55.03;35.67;;;1.90;99.90;1.70;100795.00;;;;4988394;27;88087;-66
2022/12/04 07:31:17;;;;;;;68.93;37.30;;;2.00;99.90;1.70;100802.00;;;;4988482;27;93412;-67
2022/12/04 07:33:43;;;;;;;56.83;31.20;;;1.90;99.90;1.80;100786.00;;;;4985049;27;88878;-67
2022/12/04 07:36:13;;;;;;;62.67;32.33;;;2.50;99.90;1.80;100793.00;;;;4967693;28;105370;-65
2022/12/04 07:38:40;;;;;;;55.33;31.17;;;2.00;99.90;1.80;100791.00;;;;4988330;27;87841;-65
2022/12/04 07:41:07;;;;;;;59.03;34.37;;;2.00;99.90;1.80;100797.00;;;;4989575;27;88527;-65
2022/12/04 07:43:33;;;;;;;56.47;31.53;;;2.80;99.90;1.80;100797.00;;;;4973751;28;87962;-65
2022/12/04 07:46:05;;;;;;;59.57;28.07;;;2.00;99.90;1.80;100803.00;;;;4989391;27;112141;-64
2022/12/04 07:48:31;;;;;;;56.03;29.97;;;2.00;99.90;1.80;100800.00;;;;4985886;27;87091;-67
2022/12/04 07:51:09;;;;;;;48.90;29.47;;;2.10;99.90;1.80;100797.00;;;;4979630;27;117955;-65
2022/12/04 07:53:36;;;;;;;55.67;31.70;;;2.10;99.90;1.80;100808.00;;;;4975662;28;87991;-64
2022/12/04 07:56:04;;;;;;;77.37;43.00;;;2.10;99.90;1.80;100817.00;;;;4990108;27;88723;-67
2022/12/04 07:58:29;;;;;;;52.63;30.43;;;2.10;99.90;1.80;100810.00;;;;4973303;27;87709;-65
2022/12/04 08:01:05;;;;;;;48.30;27.60;;;1.90;99.90;1.80;100807.00;;;;4988803;27;89113;-65
2022/12/04 08:03:30;;;;;;;71.00;32.07;;;2.00;99.90;1.80;100809.00;;;;4988516;27;87887;-65
2022/12/04 08:06:00;;;;;;;58.50;28.77;;;2.10;99.90;1.80;100799.00;;;;4991637;27;114045;-67
2022/12/04 08:08:26;;;;;;;43.20;26.63;;;2.10;99.90;1.80;100808.00;;;;4989375;27;88049;-67
2022/12/04 08:10:51;;;;;;;53.47;29.27;;;2.10;99.90;1.90;100811.00;;;;4986351;27;118797;-65
2022/12/04 08:13:17;;;;;;;56.20;29.57;;;2.10;99.90;1.90;100807.00;;;;4989157;27;90519;-65
2022/12/04 08:15:43;;;;;;;68.23;31.43;;;2.10;99.90;1.90;100809.00;;;;4989682;27;114133;-66
2022/12/04 08:18:08;;;;;;;52.47;29.43;;;2.10;99.90;1.80;100799.00;;;;4987044;27;109603;-66
2022/12/04 08:20:34;;;;;;;73.67;36.13;;;2.20;99.90;1.90;100801.00;;;;4988068;27;119528;-65
2022/12/04 08:23:00;;;;;;;59.87;32.63;;;2.10;99.90;1.90;100804.00;;;;4988791;27;118521;-66
2022/12/04 08:25:26;;;;;;;65.03;34.50;;;2.00;99.90;1.90;100813.00;;;;4990737;27;113256;-65
2022/12/04 08:27:52;;;;;;;50.23;27.43;;;2.60;99.90;1.90;100801.00;;;;4986725;27;87834;-65
2022/12/04 08:30:17;;;;;;;48.73;30.07;;;2.20;99.90;1.90;100802.00;;;;4989509;27;119556;-65
2022/12/04 08:32:43;;;;;;;55.60;31.43;;;2.20;99.90;1.90;100805.00;;;;4990205;27;117721;-65
2022/12/04 08:35:09;;;;;;;47.93;29.97;;;2.60;99.90;2.00;100808.00;;;;4992596;27;112361;-65
2022/12/04 08:37:34;;;;;;;61.10;32.57;;;2.30;99.90;2.00;100805.00;;;;4990534;27;87196;-64
2022/12/04 08:40:04;;;;;;;50.56;29.17;;;2.30;99.90;2.00;100808.00;;;;4200499;27;10001342;-66
2022/12/04 08:42:30;;;;;;;56.77;31.53;;;2.20;99.90;2.00;100819.00;;;;4988598;27;88311;-64
2022/12/04 08:44:55;;;;;;;59.53;28.97;;;2.20;99.90;2.00;100801.00;;;;4986205;27;88652;-66
2022/12/04 08:47:21;;;;;;;54.93;29.50;;;2.70;99.90;2.00;100809.00;;;;4990250;27;89155;-65
2022/12/04 08:49:47;;;;;;;55.47;30.90;;;2.20;99.90;2.00;100815.00;;;;4987209;27;87832;-65
2022/12/04 08:52:12;;;;;;;54.83;30.27;;;2.20;99.90;2.00;100809.00;;;;4987405;27;88015;-65
2022/12/04 08:54:38;;;;;;;74.40;31.43;;;2.30;99.90;2.10;100818.00;;;;4988863;27;87959;-65
2022/12/04 08:57:03;;;;;;;65.83;32.53;;;2.30;99.90;2.10;100804.00;;;;4989580;27;113292;-66
2022/12/04 08:59:29;;;;;;;43.23;30.33;;;2.30;99.90;2.10;100816.00;;;;4990010;27;107535;-64
2022/12/04 09:01:55;;;;;;;59.33;31.60;;;2.30;99.90;2.10;100810.00;;;;4989665;27;117452;-66
2022/12/04 09:04:20;;;;;;;54.77;35.30;;;2.40;99.90;2.10;100813.00;;;;4989161;27;116058;-65
2022/12/04 09:06:46;;;;;;;48.43;28.63;;;2.30;99.90;2.20;100814.00;;;;4983934;27;111830;-65
2022/12/04 09:09:12;;;;;;;57.97;28.60;;;2.40;99.90;2.20;100813.00;;;;4988373;27;89407;-66
2022/12/04 09:11:38;;;;;;;58.97;29.27;;;2.50;99.90;2.30;100799.00;;;;4971576;27;88839;-65
2022/12/04 09:14:04;;;;;;;55.80;26.83;;;3.60;99.90;2.30;100797.00;;;;4982276;27;93995;-64
2022/12/04 09:16:30;;;;;;;52.13;28.93;;;2.50;99.90;2.30;100798.00;;;;4986357;27;113580;-64
2022/12/04 09:18:56;;;;;;;53.30;31.43;;;2.70;99.90;2.30;100801.00;;;;4989449;27;87627;-64
2022/12/04 09:21:23;;;;;;;46.37;30.87;;;2.50;99.90;2.30;100796.00;;;;4989585;27;88345;-66
2022/12/04 09:23:50;;;;;;;60.93;29.87;;;2.50;99.90;2.40;100788.00;;;;4989895;27;88614;-66
2022/12/04 09:26:17;;;;;;;39.30;25.00;;;3.20;99.90;2.40;100796.00;;;;4988387;27;87239;-64
2022/12/04 09:28:44;;;;;;;53.63;30.93;;;2.60;99.90;2.40;100797.00;;;;4985721;27;87675;-65
2022/12/04 09:31:10;;;;;;;57.33;30.10;;;2.60;99.90;2.40;100793.00;;;;4971789;27;112040;-64
2022/12/04 09:33:36;;;;;;;38.73;29.47;;;2.70;99.90;2.50;100794.00;;;;4984337;27;117912;-65
2022/12/04 09:36:03;;;;;;;51.73;28.43;;;2.60;99.90;2.50;100787.00;;;;4989061;27;111258;-64
2022/12/04 09:38:29;;;;;;;51.43;29.87;;;2.80;99.90;2.50;100778.00;;;;4978366;27;96045;-64
2022/12/04 09:41:21;;;;;;;62.37;29.10;;;2.80;99.90;2.60;100793.00;;;;4986770;27;95706;-66
2022/12/04 09:44:05;;;;;;;49.60;30.20;;;2.80;99.90;2.60;100791.00;;;;4988630;27;88015;-65
2022/12/04 09:46:44;;;;;;;233.80;150.97;;;2.80;99.90;2.60;100795.00;;;;4974430;28;94303;-66
2022/12/04 09:49:16;;;;;;;88.77;52.47;;;2.80;99.90;2.60;100793.00;;;;4973789;28;88168;-64
2022/12/04 09:51:41;;;;;;;81.27;52.27;;;2.80;99.90;2.60;100780.00;;;;4975637;28;95117;-67
2022/12/04 09:54:18;;;;;;;76.67;46.10;;;2.80;99.90;2.60;100790.00;;;;4973082;27;88033;-66
2022/12/04 09:57:00;;;;;;;65.17;43.23;;;2.90;99.90;2.70;100774.00;;;;4973066;27;103049;-66
2022/12/04 09:59:29;;;;;;;64.93;38.10;;;2.90;99.90;2.70;100785.00;;;;4984606;27;88907;-66
2022/12/04 10:02:23;;;;;;;44.90;26.47;;;2.80;99.90;2.70;100788.00;;;;4968267;28;112330;-66
2022/12/04 10:04:49;;;;;;;53.50;33.97;;;3.00;99.90;2.70;100770.00;;;;4969809;28;103251;-67
2022/12/04 10:07:39;;;;;;;58.32;30.62;;;3.40;99.90;2.80;100778.00;;;;4863305;27;10000775;-66
2022/12/04 10:10:37;;;;;;;47.87;30.80;;;3.00;99.90;2.80;100782.00;;;;4465703;27;10089274;-66
2022/12/04 10:13:13;;;;;;;44.60;26.33;;;3.00;99.90;2.80;100790.00;;;;4978429;27;89935;-67
2022/12/04 10:16:02;;;;;;;57.80;32.03;;;3.10;99.90;2.80;100788.00;;;;4988936;27;89089;-67
2022/12/04 10:18:45;;;;;;;53.57;31.20;;;3.10;99.90;2.90;100787.00;;;;4972178;28;86979;-66
2022/12/04 10:21:38;;;;;;;54.60;27.30;;;3.10;99.90;2.90;100791.00;;;;4972371;28;101256;-66
2022/12/04 10:24:40;;;;;;;45.57;25.07;;;3.20;99.90;2.90;100783.00;;;;4987151;27;88126;-66
2022/12/04 10:27:33;;;;;;;48.83;30.77;;;3.00;99.90;3.00;100783.00;;;;4960641;28;110971;-66
2022/12/04 10:30:15;;;;;;;67.47;41.37;;;3.30;99.90;3.00;100785.00;;;;4977134;27;87959;-67
2022/12/04 10:32:44;;;;;;;56.67;32.13;;;3.20;99.90;3.00;100773.00;;;;4975468;27;87946;-67
2022/12/04 10:35:28;;;;;;;46.40;31.43;;;3.10;99.90;2.90;100782.00;;;;4984480;27;88321;-67
2022/12/04 10:38:07;;;;;;;55.23;29.77;;;3.20;99.90;2.90;100763.00;;;;4964490;28;87785;-67
2022/12/04 10:40:47;;;;;;;54.77;27.80;;;3.10;99.90;2.90;100765.00;;;;4975217;28;95122;-66
2022/12/04 10:43:24;;;;;;;60.87;32.13;;;3.20;99.90;2.90;100763.00;;;;4987554;27;87855;-65
2022/12/04 10:45:50;;;;;;;52.73;32.43;;;3.20;99.90;2.90;100760.00;;;;4989029;27;88615;-66
2022/12/04 10:48:34;;;;;;;44.47;25.57;;;3.20;99.90;2.90;100770.00;;;;4970492;27;93893;-66
2022/12/04 10:51:00;;;;;;;57.83;26.77;;;3.20;99.90;2.90;100752.00;;;;4977780;27;88064;-67
2022/12/04 10:53:32;;;;;;;36.53;23.90;;;3.10;99.90;2.90;100753.00;;;;4995832;27;89048;-68
2022/12/04 10:56:22;;;;;;;98.87;58.97;;;3.70;99.90;2.90;100754.00;;;;4987184;27;88692;-66
2022/12/04 10:59:05;;;;;;;55.73;34.27;;;3.90;99.90;3.00;100755.00;;;;4988858;27;88343;-64
2022/12/04 11:01:32;;;;;;;59.33;28.20;;;3.70;99.90;2.90;100743.00;;;;4989902;27;112672;-66
2022/12/04 11:04:08;;;;;;;56.43;30.87;;;3.10;99.90;3.00;100739.00;;;;4992719;27;102180;-67
2022/12/04 11:06:34;;;;;;;47.13;25.20;;;4.40;99.90;3.00;100747.00;;;;4993370;27;89058;-66
2022/12/04 11:09:02;;;;;;;59.47;31.13;;;3.10;99.90;3.00;100734.00;;;;4990000;27;106892;-66
2022/12/04 11:11:32;;;;;;;50.13;27.43;;;3.20;99.90;3.00;100736.00;;;;4974885;27;87134;-66
2022/12/04 11:14:03;;;;;;;53.87;26.00;;;3.30;99.90;3.00;100735.00;;;;4983955;27;93376;-67
2022/12/04 11:16:38;;;;;;;52.23;29.70;;;3.30;99.90;3.00;100737.00;;;;4991376;27;98868;-66
2022/12/04 11:19:26;;;;;;;38.33;25.90;;;3.20;99.90;3.00;100731.00;;;;4984175;27;89486;-66